createdAt,value
2022-12-31T00:01:10.372Z,15.10
2022-12-31T00:03:37.373Z,15.00
2022-12-31T00:06:17.417Z,15.00
2022-12-31T00:08:44.630Z,15.00
2022-12-31T00:11:11.364Z,14.90
2022-12-31T00:13:38.059Z,14.90
2022-12-31T00:16:11.814Z,15.00
2022-12-31T00:18:39.137Z,14.90
2022-12-31T00:21:06.848Z,14.80
2022-12-31T00:23:33.584Z,14.90
2022-12-31T00:26:06.652Z,14.80
2022-12-31T00:28:33.649Z,14.80
2022-12-31T00:31:10.757Z,14.90
2022-12-31T00:33:37.472Z,14.80
2022-12-31T00:36:11.327Z,15.00
2022-12-31T00:38:38.137Z,14.90
2022-12-31T00:41:05.016Z,14.90
2022-12-31T00:43:31.801Z,14.90
2022-12-31T00:45:58.749Z,14.80
2022-12-31T00:48:25.511Z,14.70
2022-12-31T00:50:52.271Z,14.80
2022-12-31T00:53:18.994Z,14.80
2022-12-31T00:55:45.667Z,14.90
2022-12-31T00:58:12.366Z,14.80
2022-12-31T01:00:39.138Z,15.00
2022-12-31T01:03:05.967Z,14.90
2022-12-31T01:05:32.935Z,14.80
2022-12-31T01:07:59.713Z,14.90
2022-12-31T01:10:45.245Z,14.90
2022-12-31T01:13:11.989Z,15.10
2022-12-31T01:15:38.930Z,14.90
2022-12-31T01:18:06.132Z,14.90
2022-12-31T01:20:39.854Z,14.90
2022-12-31T01:23:06.760Z,14.90
2022-12-31T01:25:39.497Z,15.00
2022-12-31T01:28:06.303Z,15.00
2022-12-31T01:30:32.975Z,15.10
2022-12-31T01:32:59.736Z,15.20
2022-12-31T01:35:26.520Z,15.10
2022-12-31T01:37:53.166Z,15.20
2022-12-31T01:40:19.846Z,15.10
2022-12-31T01:42:53.455Z,15.10
2022-12-31T01:45:20.274Z,14.80
2022-12-31T01:47:47.947Z,14.50
2022-12-31T01:50:14.626Z,14.30
2022-12-31T01:52:41.863Z,14.20
2022-12-31T01:55:27.633Z,14.20
2022-12-31T01:57:55.815Z,13.90
2022-12-31T02:00:22.569Z,13.60
2022-12-31T02:02:49.346Z,13.50
2022-12-31T02:05:22.462Z,13.80
2022-12-31T02:07:49.217Z,14.00
2022-12-31T02:10:15.939Z,14.20
2022-12-31T02:12:42.667Z,14.40
2022-12-31T02:15:09.609Z,14.70
2022-12-31T02:17:45.624Z,14.90
2022-12-31T02:20:15.247Z,14.90
2022-12-31T02:22:54.325Z,15.10
2022-12-31T02:25:21.269Z,15.20
2022-12-31T02:27:51.033Z,15.20
2022-12-31T02:30:21.725Z,15.20
2022-12-31T02:32:56.345Z,15.20
2022-12-31T02:35:23.123Z,15.20
2022-12-31T02:37:50.428Z,15.10
2022-12-31T02:40:17.713Z,15.30
2022-12-31T02:42:47.381Z,15.10
2022-12-31T02:45:17.588Z,15.00
2022-12-31T02:47:50.632Z,15.00
2022-12-31T02:50:17.383Z,14.80
2022-12-31T02:52:56.214Z,14.80
2022-12-31T02:55:30.400Z,14.80
2022-12-31T02:57:59.453Z,14.70
2022-12-31T03:00:44.959Z,14.70
2022-12-31T03:03:11.706Z,14.70
2022-12-31T03:05:39.353Z,14.60
2022-12-31T03:08:06.103Z,14.50
2022-12-31T03:10:32.856Z,14.50
2022-12-31T03:12:59.597Z,14.60
2022-12-31T03:15:27.251Z,14.60
2022-12-31T03:17:55.166Z,14.60
2022-12-31T03:20:41.143Z,14.50
2022-12-31T03:23:08.706Z,14.50
2022-12-31T03:25:41.476Z,14.60
2022-12-31T03:28:09.007Z,14.50
2022-12-31T03:30:36.045Z,14.40
2022-12-31T03:33:02.937Z,14.50
2022-12-31T03:35:29.773Z,14.50
2022-12-31T03:37:56.803Z,14.50
2022-12-31T03:40:24.137Z,14.50
2022-12-31T03:42:50.824Z,14.50
2022-12-31T03:45:17.660Z,14.50
2022-12-31T03:47:44.385Z,14.50
2022-12-31T03:50:11.928Z,14.50
2022-12-31T03:52:38.820Z,14.50
2022-12-31T03:55:06.075Z,14.50
2022-12-31T03:57:32.793Z,14.50
2022-12-31T03:59:59.596Z,14.50
2022-12-31T04:02:28.820Z,14.40
2022-12-31T04:04:56.328Z,14.30
2022-12-31T04:07:23.150Z,14.30
2022-12-31T04:09:49.840Z,14.40
2022-12-31T04:12:16.525Z,14.40
2022-12-31T04:14:43.230Z,14.40
2022-12-31T04:17:10.069Z,14.30
2022-12-31T04:19:37.762Z,14.30
2022-12-31T04:22:04.774Z,14.30
2022-12-31T04:24:31.463Z,14.30
2022-12-31T04:27:03.604Z,14.30
2022-12-31T04:29:33.928Z,14.40
2022-12-31T04:32:00.739Z,14.30
2022-12-31T04:34:27.497Z,14.20
2022-12-31T04:36:54.166Z,14.30
2022-12-31T04:39:20.813Z,14.20
2022-12-31T04:41:47.561Z,14.30
2022-12-31T04:44:14.367Z,14.10
2022-12-31T04:46:41.103Z,14.20
2022-12-31T04:49:07.798Z,14.20
2022-12-31T04:51:34.492Z,14.30
2022-12-31T04:54:01.235Z,14.10
2022-12-31T04:56:28.035Z,14.20
2022-12-31T04:58:54.782Z,14.20
2022-12-31T05:01:21.650Z,14.20
2022-12-31T05:03:48.432Z,14.20
2022-12-31T05:06:21.503Z,14.10
2022-12-31T05:08:48.352Z,14.10
2022-12-31T05:11:15.326Z,14.10
2022-12-31T05:13:42.331Z,14.00
2022-12-31T05:16:09.012Z,14.00
2022-12-31T05:18:35.877Z,14.20
2022-12-31T05:21:02.685Z,14.10
2022-12-31T05:23:29.392Z,14.20
2022-12-31T05:25:56.251Z,14.10
2022-12-31T05:28:22.967Z,14.20
2022-12-31T05:30:50.168Z,14.20
2022-12-31T05:33:17.284Z,14.20
2022-12-31T05:35:44.052Z,14.30
2022-12-31T05:38:10.792Z,14.20
2022-12-31T05:40:37.475Z,14.20
2022-12-31T05:43:04.156Z,14.20
2022-12-31T05:45:31.432Z,14.30
2022-12-31T05:47:58.403Z,14.20
2022-12-31T05:50:25.177Z,14.20
2022-12-31T05:52:51.872Z,14.20
2022-12-31T05:55:18.662Z,14.10
2022-12-31T05:57:45.423Z,14.10
2022-12-31T06:00:12.299Z,14.10
2022-12-31T06:02:39.107Z,14.20
2022-12-31T06:05:06.023Z,14.20
2022-12-31T06:07:32.733Z,14.20
2022-12-31T06:09:59.434Z,14.10
2022-12-31T06:12:26.088Z,14.00
2022-12-31T06:14:52.781Z,14.00
2022-12-31T06:17:20.613Z,14.10
2022-12-31T06:19:47.332Z,14.00
2022-12-31T06:22:14.035Z,14.00
2022-12-31T06:24:40.835Z,14.00
2022-12-31T06:27:07.599Z,14.10
2022-12-31T06:29:34.379Z,13.90
2022-12-31T06:32:01.104Z,13.90
2022-12-31T06:34:27.894Z,14.00
2022-12-31T06:36:54.641Z,14.00
2022-12-31T06:39:21.381Z,14.00
2022-12-31T06:41:48.084Z,14.00
2022-12-31T06:44:14.995Z,14.00
2022-12-31T06:46:41.833Z,13.90
2022-12-31T06:49:08.607Z,13.80
2022-12-31T06:51:35.305Z,13.70
2022-12-31T06:54:02.039Z,13.50
2022-12-31T06:56:34.509Z,13.40
2022-12-31T06:59:02.136Z,13.20
2022-12-31T07:01:30.759Z,12.70
2022-12-31T07:04:00.583Z,12.10
2022-12-31T07:06:34.504Z,12.00
2022-12-31T07:09:21.477Z,11.70
2022-12-31T07:12:01.537Z,12.00
2022-12-31T07:14:28.158Z,12.10
2022-12-31T07:17:13.645Z,12.50
2022-12-31T07:19:57.901Z,13.10
2022-12-31T07:22:24.902Z,13.50
2022-12-31T07:24:51.701Z,14.00
2022-12-31T07:27:27.440Z,14.30
2022-12-31T07:29:57.091Z,14.30
2022-12-31T07:32:42.821Z,14.70
2022-12-31T07:35:12.400Z,15.30
2022-12-31T07:37:48.168Z,15.40
2022-12-31T07:40:30.198Z,15.60
2022-12-31T07:43:02.754Z,16.00
2022-12-31T07:45:55.829Z,16.30
2022-12-31T07:48:26.141Z,17.00
2022-12-31T07:50:54.493Z,17.30
2022-12-31T07:53:21.581Z,18.10
2022-12-31T07:55:49.250Z,18.70
2022-12-31T07:58:36.172Z,19.60
2022-12-31T08:01:03.190Z,19.60
2022-12-31T08:03:43.400Z,19.20
2022-12-31T08:06:10.879Z,19.30
2022-12-31T08:08:43.394Z,19.90
2022-12-31T08:11:28.742Z,20.50
2022-12-31T08:13:58.361Z,21.10
2022-12-31T08:16:25.276Z,21.60
2022-12-31T08:18:52.172Z,21.60
2022-12-31T08:21:19.035Z,20.80
2022-12-31T08:23:58.721Z,21.20
2022-12-31T08:26:31.446Z,22.20
2022-12-31T08:29:16.993Z,22.70
2022-12-31T08:31:52.896Z,23.10
2022-12-31T08:34:31.840Z,23.20
2022-12-31T08:37:03.546Z,23.60
2022-12-31T08:39:39.788Z,22.90
2022-12-31T08:42:09.772Z,24.50
2022-12-31T08:44:37.865Z,24.40
2022-12-31T08:47:19.836Z,25.20
2022-12-31T08:49:46.706Z,25.40
2022-12-31T08:52:16.035Z,25.10
2022-12-31T08:54:42.796Z,25.00
2022-12-31T08:57:14.727Z,25.30
2022-12-31T09:00:01.721Z,24.60
2022-12-31T09:02:48.335Z,25.40
2022-12-31T09:05:18.264Z,25.50
2022-12-31T09:07:50.853Z,24.70
2022-12-31T09:10:18.869Z,24.60
2022-12-31T09:12:51.849Z,25.20
2022-12-31T09:15:25.462Z,25.60
2022-12-31T09:17:52.290Z,26.10
2022-12-31T09:20:26.230Z,26.30
2022-12-31T09:22:53.116Z,27.00
2022-12-31T09:25:20.298Z,27.60
2022-12-31T09:28:05.961Z,27.50
2022-12-31T09:30:35.573Z,26.30
2022-12-31T09:33:06.010Z,24.30
2022-12-31T09:35:39.419Z,23.40
2022-12-31T09:38:11.607Z,22.80
2022-12-31T09:40:47.927Z,23.20
2022-12-31T09:43:33.368Z,24.80
2022-12-31T09:46:02.969Z,26.10
2022-12-31T09:48:48.088Z,26.70
2022-12-31T09:51:25.242Z,26.50
2022-12-31T09:54:07.686Z,26.70
2022-12-31T09:56:58.871Z,27.00
2022-12-31T09:59:30.170Z,26.70
2022-12-31T10:01:58.007Z,26.40
2022-12-31T10:04:43.342Z,26.40
2022-12-31T10:07:10.039Z,26.90
2022-12-31T10:09:42.973Z,26.60
2022-12-31T10:12:31.140Z,26.20
2022-12-31T10:15:09.797Z,26.20
2022-12-31T10:17:55.404Z,25.00
2022-12-31T10:20:51.686Z,24.30
2022-12-31T10:23:26.126Z,23.80
2022-12-31T10:26:01.928Z,22.80
2022-12-31T10:28:37.519Z,21.70
2022-12-31T10:31:07.384Z,21.20
2022-12-31T10:33:52.580Z,20.40
2022-12-31T10:36:39.634Z,20.40
2022-12-31T10:39:13.478Z,20.20
2022-12-31T10:42:02.247Z,20.10
2022-12-31T10:44:48.184Z,20.20
2022-12-31T10:47:14.955Z,20.00
2022-12-31T10:49:41.652Z,19.90
2022-12-31T10:52:11.150Z,19.90
2022-12-31T10:54:42.695Z,19.90
2022-12-31T10:57:28.258Z,19.90
2022-12-31T10:59:55.038Z,19.90
2022-12-31T11:02:31.876Z,20.00
2022-12-31T11:04:58.724Z,20.00
2022-12-31T11:07:51.894Z,20.30
2022-12-31T11:10:27.492Z,20.30
2022-12-31T11:13:02.394Z,20.40
2022-12-31T11:15:29.126Z,20.60
2022-12-31T11:18:14.549Z,20.20
2022-12-31T11:20:47.407Z,20.40
2022-12-31T11:23:29.434Z,21.10
2022-12-31T11:26:05.496Z,21.40
2022-12-31T11:28:50.802Z,21.00
2022-12-31T11:31:23.582Z,21.10
2022-12-31T11:34:14.717Z,21.10
2022-12-31T11:36:44.291Z,21.40
2022-12-31T11:39:31.249Z,21.50
2022-12-31T11:42:19.382Z,21.50
2022-12-31T11:44:50.431Z,21.40
2022-12-31T11:47:17.184Z,21.70
2022-12-31T11:49:51.028Z,22.30
2022-12-31T11:52:38.039Z,22.70
2022-12-31T11:55:14.036Z,23.40
2022-12-31T11:57:41.984Z,24.50
2022-12-31T12:00:16.810Z,25.10
2022-12-31T12:02:44.610Z,25.40
2022-12-31T12:05:13.246Z,24.80
2022-12-31T12:07:39.961Z,24.50
2022-12-31T12:10:15.190Z,24.80
2022-12-31T12:12:42.160Z,25.50
2022-12-31T12:15:09.626Z,25.10
2022-12-31T12:17:36.331Z,25.70
2022-12-31T12:20:23.287Z,25.10
2022-12-31T12:22:50.881Z,25.30
2022-12-31T12:25:19.475Z,26.00
2022-12-31T12:27:46.375Z,25.60
2022-12-31T12:30:23.362Z,25.80
2022-12-31T12:33:00.023Z,25.50
2022-12-31T12:35:30.691Z,24.50
2022-12-31T12:38:03.205Z,23.50
2022-12-31T12:40:34.062Z,22.70
2022-12-31T12:43:01.222Z,21.60
2022-12-31T12:45:29.406Z,21.60
2022-12-31T12:47:57.177Z,21.70
2022-12-31T12:50:24.694Z,22.40
2022-12-31T12:52:55.097Z,21.80
2022-12-31T12:55:27.266Z,21.90
2022-12-31T12:58:06.405Z,21.80
2022-12-31T13:00:42.217Z,20.90
2022-12-31T13:03:15.386Z,20.80
2022-12-31T13:05:52.702Z,20.50
2022-12-31T13:08:25.772Z,20.10
2022-12-31T13:11:16.001Z,20.10
2022-12-31T13:13:46.670Z,20.40
2022-12-31T13:16:16.477Z,19.80
2022-12-31T13:18:46.352Z,19.70
2022-12-31T13:21:31.837Z,19.90
2022-12-31T13:24:01.552Z,20.60
2022-12-31T13:26:48.461Z,20.90
2022-12-31T13:29:17.233Z,20.90
2022-12-31T13:31:43.942Z,20.30
2022-12-31T13:34:14.586Z,20.10
2022-12-31T13:36:41.999Z,20.10
2022-12-31T13:39:19.396Z,20.00
2022-12-31T13:42:12.365Z,19.80
2022-12-31T13:44:39.143Z,19.80
2022-12-31T13:47:08.787Z,19.70
2022-12-31T13:49:42.477Z,19.40
2022-12-31T13:52:19.169Z,19.30
2022-12-31T13:54:56.593Z,19.30
2022-12-31T13:58:01.713Z,19.20
2022-12-31T14:00:30.414Z,19.00
2022-12-31T14:03:00.557Z,19.30
2022-12-31T14:05:38.259Z,19.00
2022-12-31T14:08:05.305Z,18.80
2022-12-31T14:10:36.488Z,19.00
2022-12-31T14:13:07.165Z,18.80
2022-12-31T14:15:36.350Z,18.80
2022-12-31T14:18:03.123Z,18.80
2022-12-31T14:20:32.984Z,18.70
2022-12-31T14:23:18.642Z,18.80
2022-12-31T14:25:49.671Z,18.80
2022-12-31T14:28:26.717Z,18.60
2022-12-31T14:30:55.914Z,18.60
2022-12-31T14:33:34.600Z,18.60
2022-12-31T14:36:05.307Z,18.60
2022-12-31T14:38:55.328Z,18.60
2022-12-31T14:41:42.264Z,18.80
2022-12-31T14:44:19.810Z,18.70
2022-12-31T14:46:49.607Z,18.80
2022-12-31T14:49:39.294Z,18.80
2022-12-31T14:52:14.830Z,18.80
2022-12-31T14:54:41.553Z,18.30
2022-12-31T14:57:12.011Z,18.20
2022-12-31T14:59:40.695Z,18.30
2022-12-31T15:02:25.248Z,18.10
2022-12-31T15:04:52.068Z,17.90
2022-12-31T15:07:22.020Z,18.00
2022-12-31T15:09:57.975Z,17.90
2022-12-31T15:12:31.344Z,17.70
2022-12-31T15:15:16.368Z,17.50
2022-12-31T15:17:47.277Z,17.30
2022-12-31T15:20:23.050Z,17.10
2022-12-31T15:22:50.047Z,17.00
2022-12-31T15:25:19.794Z,17.00
2022-12-31T15:27:46.649Z,16.90
2022-12-31T15:30:28.650Z,16.90
2022-12-31T15:32:55.721Z,16.80
2022-12-31T15:35:22.411Z,16.80
2022-12-31T15:38:01.410Z,16.60
2022-12-31T15:40:29.570Z,16.20
2022-12-31T15:42:56.418Z,16.20
2022-12-31T15:45:24.754Z,16.00
2022-12-31T15:47:58.130Z,15.90
2022-12-31T15:50:24.987Z,15.80
2022-12-31T15:52:55.354Z,15.70
2022-12-31T15:55:41.655Z,15.60
2022-12-31T15:58:12.571Z,15.80
2022-12-31T16:00:44.811Z,15.50
2022-12-31T16:03:18.307Z,15.50
2022-12-31T16:05:45.030Z,15.50
2022-12-31T16:08:12.657Z,15.30
2022-12-31T16:10:39.419Z,15.10
2022-12-31T16:13:06.350Z,15.10
2022-12-31T16:15:33.169Z,15.10
2022-12-31T16:18:04.447Z,15.10
2022-12-31T16:20:31.752Z,15.10
2022-12-31T16:22:59.097Z,14.80
2022-12-31T16:25:33.749Z,14.70
2022-12-31T16:28:01.164Z,14.80
2022-12-31T16:30:27.967Z,14.70
2022-12-31T16:32:55.959Z,14.80
2022-12-31T16:35:26.866Z,14.70
2022-12-31T16:38:13.308Z,15.10
2022-12-31T16:41:00.376Z,15.40
2022-12-31T16:43:30.663Z,15.10
2022-12-31T16:46:07.380Z,15.00
2022-12-31T16:48:34.134Z,15.00
2022-12-31T16:51:00.736Z,14.90
2022-12-31T16:53:27.562Z,14.70
2022-12-31T16:56:00.276Z,14.50
2022-12-31T16:58:28.336Z,14.60
2022-12-31T17:00:55.123Z,14.70
2022-12-31T17:03:25.080Z,15.00
2022-12-31T17:05:56.240Z,14.90
2022-12-31T17:08:24.602Z,14.80
2022-12-31T17:10:51.275Z,14.30
2022-12-31T17:13:30.103Z,14.10
2022-12-31T17:15:57.249Z,13.90
2022-12-31T17:18:24.645Z,13.90
2022-12-31T17:20:51.586Z,13.80
2022-12-31T17:23:36.812Z,13.50
2022-12-31T17:26:08.755Z,13.70
2022-12-31T17:28:53.744Z,13.70
2022-12-31T17:31:32.634Z,13.70
2022-12-31T17:34:06.681Z,13.80
2022-12-31T17:36:33.450Z,13.90
2022-12-31T17:39:16.765Z,14.10
2022-12-31T17:41:46.596Z,14.30
2022-12-31T17:44:15.704Z,14.40
2022-12-31T17:46:42.393Z,14.40
2022-12-31T17:49:09.101Z,14.30
2022-12-31T17:51:36.796Z,14.30
2022-12-31T17:54:06.301Z,14.30
2022-12-31T17:56:33.024Z,14.20
2022-12-31T17:59:00.422Z,13.80
2022-12-31T18:01:27.213Z,13.90
2022-12-31T18:03:54.017Z,13.90
2022-12-31T18:06:20.750Z,14.00
2022-12-31T18:08:47.521Z,13.70
2022-12-31T18:11:15.312Z,13.70
2022-12-31T18:13:41.972Z,13.60
2022-12-31T18:16:08.701Z,13.30
2022-12-31T18:18:39.814Z,13.20
2022-12-31T18:21:07.403Z,13.10
2022-12-31T18:23:37.048Z,13.00
2022-12-31T18:26:03.843Z,13.10
2022-12-31T18:28:30.514Z,13.00
2022-12-31T18:30:57.247Z,12.80
2022-12-31T18:33:25.109Z,12.90
2022-12-31T18:36:09.225Z,13.00
2022-12-31T18:38:36.926Z,13.00
2022-12-31T18:41:03.652Z,13.10
2022-12-31T18:43:30.427Z,12.90
2022-12-31T18:45:57.148Z,12.90
2022-12-31T18:48:23.930Z,12.80
2022-12-31T18:50:50.691Z,13.00
2022-12-31T18:53:18.227Z,12.90
2022-12-31T18:55:51.998Z,12.90
2022-12-31T18:58:18.798Z,12.80
2022-12-31T19:00:45.787Z,12.70
2022-12-31T19:03:16.258Z,12.90
2022-12-31T19:05:43.012Z,12.80
2022-12-31T19:08:09.711Z,13.20
2022-12-31T19:10:36.373Z,13.50
2022-12-31T19:13:03.203Z,13.80
2022-12-31T19:15:32.888Z,13.90
2022-12-31T19:18:00.272Z,13.50
2022-12-31T19:20:27.005Z,13.70
2022-12-31T19:22:53.700Z,13.20
2022-12-31T19:25:21.681Z,13.50
2022-12-31T19:27:48.453Z,13.60
2022-12-31T19:30:19.384Z,13.70
2022-12-31T19:32:46.110Z,13.90
2022-12-31T19:35:13.170Z,13.90
2022-12-31T19:37:40.486Z,13.60
2022-12-31T19:40:07.647Z,13.60
2022-12-31T19:42:34.321Z,13.30
2022-12-31T19:45:01.048Z,13.10
2022-12-31T19:47:27.697Z,12.90
2022-12-31T19:49:54.318Z,12.80
2022-12-31T19:52:21.076Z,12.70
2022-12-31T19:54:47.923Z,12.50
2022-12-31T19:57:14.643Z,12.50
2022-12-31T19:59:41.331Z,12.40
2022-12-31T20:02:09.383Z,12.20
2022-12-31T20:04:36.291Z,12.00
2022-12-31T20:07:03.032Z,12.20
2022-12-31T20:09:29.780Z,12.00
2022-12-31T20:11:56.526Z,12.20
2022-12-31T20:14:23.187Z,12.20
2022-12-31T20:16:50.051Z,12.10
2022-12-31T20:19:16.791Z,12.00
2022-12-31T20:21:44.989Z,12.10
2022-12-31T20:24:11.746Z,12.00
2022-12-31T20:26:38.568Z,11.90
2022-12-31T20:29:05.438Z,11.80
2022-12-31T20:31:32.319Z,11.90
2022-12-31T20:33:59.029Z,11.80
2022-12-31T20:36:26.363Z,11.80
2022-12-31T20:38:53.075Z,11.80
2022-12-31T20:41:20.503Z,11.60
2022-12-31T20:43:47.408Z,11.50
2022-12-31T20:46:16.120Z,11.50
2022-12-31T20:48:43.692Z,11.50
2022-12-31T20:51:10.406Z,11.40
2022-12-31T20:53:37.116Z,11.30
2022-12-31T20:56:07.314Z,11.40
2022-12-31T20:58:34.231Z,11.30
2022-12-31T21:01:01.158Z,11.10
2022-12-31T21:04:03.606Z,11.00
2022-12-31T21:06:14.840Z,11.00
2022-12-31T21:08:41.612Z,11.00
2022-12-31T21:11:28.596Z,10.80
2022-12-31T21:13:55.676Z,11.10
2022-12-31T21:16:22.520Z,11.30
2022-12-31T21:18:49.282Z,10.90
2022-12-31T21:21:16.072Z,11.10
2022-12-31T21:23:42.850Z,11.20
2022-12-31T21:26:09.617Z,11.30
2022-12-31T21:28:36.396Z,11.20
2022-12-31T21:31:04.268Z,11.20
2022-12-31T21:33:31.073Z,11.30
2022-12-31T21:36:04.302Z,11.40
2022-12-31T21:38:31.589Z,10.80
2022-12-31T21:41:02.122Z,10.90
2022-12-31T21:43:28.788Z,10.90
2022-12-31T21:46:05.476Z,11.00
2022-12-31T21:48:32.474Z,11.10
2022-12-31T21:51:06.303Z,11.10
2022-12-31T21:53:36.979Z,11.00
2022-12-31T21:56:11.499Z,10.90
2022-12-31T21:58:39.041Z,10.70
2022-12-31T22:01:24.635Z,10.50
2022-12-31T22:03:51.547Z,10.20
2022-12-31T22:06:20.658Z,10.30
2022-12-31T22:08:56.521Z,10.30
2022-12-31T22:11:24.227Z,10.10
2022-12-31T22:13:50.942Z,10.20
2022-12-31T22:16:19.107Z,10.30
2022-12-31T22:18:45.897Z,10.40
2022-12-31T22:21:19.184Z,10.30
2022-12-31T22:23:47.243Z,10.30
2022-12-31T22:26:14.784Z,10.20
2022-12-31T22:28:41.808Z,10.00
2022-12-31T22:31:26.782Z,10.10
2022-12-31T22:33:53.592Z,10.00
2022-12-31T22:36:20.934Z,10.20
2022-12-31T22:38:47.818Z,10.10
2022-12-31T22:41:15.353Z,10.20
2022-12-31T22:43:42.761Z,10.00
2022-12-31T22:46:10.084Z,9.90
2022-12-31T22:48:37.121Z,9.90
2022-12-31T22:51:03.867Z,9.70
2022-12-31T22:53:30.544Z,9.50
2022-12-31T22:55:57.624Z,9.60
2022-12-31T22:58:24.394Z,10.00
2022-12-31T23:01:00.603Z,10.20
2022-12-31T23:03:28.073Z,10.30
2022-12-31T23:05:54.955Z,10.10
2022-12-31T23:08:23.714Z,9.80
2022-12-31T23:11:00.773Z,9.90
2022-12-31T23:13:51.377Z,10.10
2022-12-31T23:16:37.814Z,9.80
2022-12-31T23:19:23.526Z,9.90
2022-12-31T23:22:08.663Z,10.20
2022-12-31T23:24:35.489Z,10.20
2022-12-31T23:27:02.195Z,10.00
2022-12-31T23:29:28.897Z,10.00
2022-12-31T23:31:55.729Z,10.00
2022-12-31T23:34:22.449Z,9.70
2022-12-31T23:36:49.092Z,9.70
2022-12-31T23:39:15.780Z,10.00
2022-12-31T23:41:42.532Z,10.00
2022-12-31T23:44:10.555Z,10.00
2022-12-31T23:46:37.355Z,10.00
2022-12-31T23:49:07.154Z,9.90
2022-12-31T23:51:35.954Z,9.70
2022-12-31T23:54:03.415Z,9.90
2022-12-31T23:56:30.173Z,9.80
2022-12-31T23:58:57.441Z,9.90
